Time;durP1;ratioP1;P1;durP2;ratioP2;P2;SDS_P1;SDS_P2;PMS_P1;PMS_P2;Temp;Humidity;BMP_temperature;BMP_pressure;BME280_temperature;BME280_humidity;BME280_pressure;Samples;Min_cycle;Max_cycle;Signal;HPM_P1;HPM_P2
2024/01/22 00:01:23;;;;;;;10.98;3.80;;;;;;;8.34;59.07;99855.94;5094754;28;20031;-50
2024/01/22 00:03:49;;;;;;;11.25;3.50;;;;;;;8.48;59.73;99855.38;5110544;28;20111;-50
2024/01/22 00:06:15;;;;;;;9.45;4.45;;;;;;;8.37;59.91;99860.84;5094755;28;20024;-50
2024/01/22 00:08:40;;;;;;;11.95;3.53;;;;;;;8.15;59.86;99857.84;5094754;28;20059;-50
2024/01/22 00:11:06;;;;;;;11.77;3.42;;;;;;;8.06;59.66;99853.53;5094681;28;20031;-50
2024/01/22 00:13:32;;;;;;;7.53;3.75;;;;;;;7.85;60.24;99866.13;5093395;28;20027;-50
2024/01/22 00:15:57;;;;;;;16.20;4.10;;;;;;;7.79;61.52;99870.19;5094644;28;20024;-50
2024/01/22 00:18:23;;;;;;;13.02;3.05;;;;;;;7.78;60.72;99871.16;5110251;28;20032;-50
2024/01/22 00:20:49;;;;;;;10.95;3.30;;;;;;;7.83;60.53;99866.31;5094467;28;20509;-50
2024/01/22 00:23:15;;;;;;;8.95;4.53;;;;;;;7.84;62.07;99877.56;5110094;28;20128;-50
2024/01/22 00:25:41;;;;;;;8.65;3.10;;;;;;;7.77;61.14;99859.06;5094478;28;20016;-50
2024/01/22 00:28:06;;;;;;;9.50;3.25;;;;;;;7.94;60.21;99868.66;5109850;28;20129;-50
2024/01/22 00:30:32;;;;;;;8.73;3.50;;;;;;;8.11;58.79;99868.72;5094259;28;20032;-50
2024/01/22 00:32:59;;;;;;;11.65;3.58;;;;;;;8.33;57.94;99860.38;5110035;28;20108;-50
2024/01/22 00:35:24;;;;;;;13.52;4.30;;;;;;;8.53;58.20;99871.44;5094203;28;20031;-50
2024/01/22 00:37:50;;;;;;;8.63;3.40;;;;;;;8.66;56.98;99864.94;5109939;28;20016;-50
2024/01/22 00:40:17;;;;;;;8.77;3.35;;;;;;;8.56;56.64;99871.09;5109856;28;20032;-50
2024/01/22 00:42:43;;;;;;;11.63;4.85;;;;;;;8.31;57.46;99878.00;5094054;28;20031;-50
2024/01/22 00:45:09;;;;;;;9.65;4.38;;;;;;;8.17;58.13;99881.22;5109704;28;20024;-50
2024/01/22 00:47:36;;;;;;;14.07;4.22;;;;;;;7.94;58.46;99867.81;5109737;28;20027;-50
2024/01/22 00:50:03;;;;;;;9.30;4.45;;;;;;;7.70;58.78;99871.91;5093973;28;20032;-50
2024/01/22 00:52:29;;;;;;;11.18;3.90;;;;;;;7.37;58.89;99873.47;5093861;28;20016;-50
2024/01/22 00:54:55;;;;;;;7.05;3.67;;;;;;;7.29;60.29;99884.66;5109603;28;20485;-50
2024/01/22 00:57:20;;;;;;;11.23;4.10;;;;;;;7.25;59.81;99874.66;5093804;28;20016;-50
2024/01/22 00:59:46;;;;;;;9.88;3.60;;;;;;;7.19;60.24;99876.06;5109414;28;20470;-50
2024/01/22 01:02:12;;;;;;;8.57;3.40;;;;;;;7.31;61.55;99874.06;5109265;28;20081;-50
2024/01/22 01:04:38;;;;;;;11.77;3.53;;;;;;;7.36;60.43;99871.81;5093284;28;20063;-50
2024/01/22 01:07:04;;;;;;;13.75;3.25;;;;;;;7.38;60.99;99870.69;5093187;28;20599;-50
2024/01/22 01:09:30;;;;;;;12.65;6.10;;;;;;;7.46;60.64;99867.31;5109300;28;20027;-50
2024/01/22 01:11:55;;;;;;;12.00;5.30;;;;;;;7.65;60.75;99855.06;5093495;28;20032;-50
2024/01/22 01:14:21;;;;;;;9.10;3.47;;;;;;;7.89;61.73;99857.03;5093918;28;20024;-50
2024/01/22 01:16:47;;;;;;;13.75;3.65;;;;;;;7.93;63.54;99853.94;5093460;28;20032;-50
2024/01/22 01:19:13;;;;;;;9.85;3.30;;;;;;;7.88;70.27;99850.97;5109124;28;20024;-50
2024/01/22 01:21:39;;;;;;;12.20;4.80;;;;;;;7.63;70.68;99841.34;5093274;28;20104;-50
2024/01/22 01:24:05;;;;;;;13.95;4.07;;;;;;;7.65;73.76;99853.28;5092044;28;20024;-50
2024/01/22 01:26:30;;;;;;;81.82;7.35;;;;;;;7.63;74.08;99854.41;5093242;28;20031;-50
2024/01/22 01:28:57;;;;;;;11.32;4.00;;;;;;;7.65;74.34;99853.28;5108349;28;20162;-49
2024/01/22 01:31:22;;;;;;;12.20;3.50;;;;;;;7.77;72.25;99854.66;5093029;28;20081;-50
2024/01/22 01:33:48;;;;;;;14.40;7.93;;;;;;;7.74;67.80;99851.53;5093136;28;20452;-49
2024/01/22 01:36:14;;;;;;;12.40;6.72;;;;;;;7.72;67.02;99843.84;5091738;28;20103;-50
2024/01/22 01:38:39;;;;;;;11.77;4.55;;;;;;;7.85;65.57;99829.53;5108783;28;20111;-50
2024/01/22 01:41:05;;;;;;;11.32;4.00;;;;;;;7.85;65.37;99834.75;5108624;28;20520;-50
2024/01/22 01:43:31;;;;;;;6.60;3.47;;;;;;;7.83;65.27;99839.31;5108541;28;20055;-50
2024/01/22 01:45:57;;;;;;;7.57;3.55;;;;;;;7.80;64.85;99843.88;5108600;28;20126;-50
2024/01/22 01:48:23;;;;;;;9.82;3.80;;;;;;;7.84;63.42;99856.66;5108500;28;20110;-50
2024/01/22 01:50:49;;;;;;;16.40;5.07;;;;;;;7.98;64.49;99856.91;5074673;28;20035;-50
2024/01/22 01:53:16;;;;;;;10.85;4.88;;;;;;;8.18;67.33;99847.03;5092778;28;20099;-50
2024/01/22 01:55:43;;;;;;;13.02;6.15;;;;;;;7.97;71.10;99859.69;5108334;28;20031;-50
2024/01/22 01:58:09;;;;;;;12.50;4.97;;;;;;;7.94;75.46;99858.19;5092698;28;20024;-50
2024/01/22 02:00:35;;;;;;;9.85;3.78;;;;;;;8.04;76.44;99850.25;5092664;28;20028;-50
2024/01/22 02:03:01;;;;;;;1285.57;106.65;;;;;;;8.11;78.64;99848.66;5108297;28;20035;-50
2024/01/22 02:05:27;;;;;;;12.57;5.03;;;;;;;8.25;73.82;99835.97;5091145;28;20028;-50
2024/01/22 02:07:53;;;;;;;35.45;24.70;;;;;;;8.39;73.34;99827.50;5108181;28;20405;-50
2024/01/22 02:10:18;;;;;;;30.63;17.23;;;;;;;8.25;69.28;99830.72;5091073;28;20457;-50
2024/01/22 02:12:44;;;;;;;42.53;32.22;;;;;;;8.31;66.89;99825.72;5092460;28;20529;-50
2024/01/22 02:15:10;;;;;;;22.85;13.23;;;;;;;8.55;66.00;99843.31;5092377;28;20054;-50
2024/01/22 02:17:36;;;;;;;15.65;6.78;;;;;;;8.90;64.92;99830.97;5092255;28;20024;-50
2024/01/22 02:20:02;;;;;;;13.20;6.05;;;;;;;9.11;63.43;99822.63;5108265;28;20035;-51
2024/01/22 02:22:28;;;;;;;18.85;7.43;;;;;;;9.24;62.47;99818.75;5092253;28;20024;-50
2024/01/22 02:24:54;;;;;;;11.93;5.63;;;;;;;9.27;61.66;99823.63;5107892;28;20030;-50
2024/01/22 02:27:20;;;;;;;11.43;4.15;;;;;;;9.19;61.57;99814.81;5091967;28;20028;-50
2024/01/22 02:29:46;;;;;;;12.27;5.22;;;;;;;9.12;61.06;99815.63;5092225;28;20024;-50
2024/01/22 02:32:12;;;;;;;16.23;10.77;;;;;;;9.05;62.13;99806.75;5092116;28;20043;-50
2024/01/22 02:34:38;;;;;;;27.13;17.92;;;;;;;9.01;62.07;99801.03;5092141;28;20028;-50
2024/01/22 02:37:04;;;;;;;17.80;6.45;;;;;;;9.07;62.58;99799.56;5090753;28;20056;-50
2024/01/22 02:39:30;;;;;;;14.73;5.32;;;;;;;9.15;61.79;99808.22;5107717;28;20491;-50
2024/01/22 02:41:55;;;;;;;10.10;4.45;;;;;;;9.19;61.14;99788.63;5107571;28;20020;-50
2024/01/22 02:44:21;;;;;;;16.52;6.65;;;;;;;9.18;61.66;99804.50;5091988;28;20032;-50
2024/01/22 02:46:47;;;;;;;8.38;4.72;;;;;;;9.10;61.70;99799.25;5107556;28;20020;-50
2024/01/22 02:49:13;;;;;;;13.35;3.60;;;;;;;9.01;61.00;99808.88;5091953;28;20393;-50
2024/01/22 02:51:43;;;;;;;11.65;4.65;;;;;;;8.92;61.86;99810.69;5092126;28;20028;-48
2024/01/22 02:54:09;;;;;;;17.60;3.70;;;;;;;8.96;62.43;99824.28;5091959;28;20102;-47
2024/01/22 02:56:34;;;;;;;10.65;4.47;;;;;;;9.04;63.05;99832.13;5091910;28;20039;-48
2024/01/22 02:59:00;;;;;;;11.98;4.30;;;;;;;8.82;61.74;99830.97;5091966;28;20027;-48
2024/01/22 03:01:27;;;;;;;15.80;4.45;;;;;;;8.54;61.98;99848.72;5091722;28;20062;-50
2024/01/22 03:03:52;;;;;;;14.07;4.07;;;;;;;8.33;62.38;99857.75;5107387;28;20035;-51
2024/01/22 03:06:18;;;;;;;8.00;3.13;;;;;;;8.17;62.81;99858.50;5091790;28;20103;-50
2024/01/22 03:08:44;;;;;;;12.15;3.67;;;;;;;8.17;63.49;99874.19;5091741;28;20486;-50
2024/01/22 03:11:09;;;;;;;12.55;4.47;;;;;;;8.13;63.63;99875.47;5090371;28;20020;-50
2024/01/22 03:13:35;;;;;;;18.80;9.23;;;;;;;8.15;64.62;99870.09;5107413;28;20082;-50
2024/01/22 03:16:01;;;;;;;14.75;5.57;;;;;;;8.15;64.94;99867.47;5091653;28;20023;-50
2024/01/22 03:18:27;;;;;;;11.82;3.75;;;;;;;8.19;63.04;99861.78;5091584;28;20571;-50
2024/01/22 03:20:53;;;;;;;12.20;3.10;;;;;;;8.25;63.28;99869.94;5091641;28;20453;-50
2024/01/22 03:23:19;;;;;;;13.38;4.13;;;;;;;8.27;63.33;99860.16;5091557;28;20048;-50
2024/01/22 03:25:45;;;;;;;10.88;3.25;;;;;;;8.32;63.67;99850.06;5091575;28;20504;-50
2024/01/22 03:28:11;;;;;;;15.15;6.20;;;;;;;8.69;63.47;99833.22;5091781;28;20079;-50
2024/01/22 03:30:37;;;;;;;10.07;3.72;;;;;;;8.99;62.43;99830.00;5111174;28;20028;-50
2024/01/22 03:33:03;;;;;;;14.43;3.72;;;;;;;9.21;61.76;99827.72;5095508;28;20084;-50
2024/01/22 03:35:28;;;;;;;8.40;2.90;;;;;;;9.30;60.61;99818.91;5095471;28;20032;-50
2024/01/22 03:37:54;;;;;;;12.43;4.88;;;;;;;9.13;60.71;99825.91;5111132;28;20027;-50
2024/01/22 03:40:20;;;;;;;15.73;3.55;;;;;;;8.92;61.13;99833.44;5095328;28;20048;-50
2024/01/22 03:42:46;;;;;;;12.45;4.97;;;;;;;8.57;61.68;99840.53;5110964;28;20028;-51
2024/01/22 03:45:11;;;;;;;9.98;3.22;;;;;;;8.51;62.91;99828.06;5110923;28;20047;-50
2024/01/22 03:47:39;;;;;;;11.57;4.10;;;;;;;8.67;63.42;99809.00;5110916;28;20497;-50
2024/01/22 03:50:06;;;;;;;7.82;2.90;;;;;;;8.77;62.75;99815.75;5095174;28;20023;-50
2024/01/22 03:52:32;;;;;;;9.88;3.88;;;;;;;9.02;62.75;99817.56;5095146;28;20028;-50
2024/01/22 03:54:58;;;;;;;11.98;4.63;;;;;;;8.97;62.69;99811.03;5110749;28;20038;-48
2024/01/22 03:57:23;;;;;;;8.63;3.58;;;;;;;8.91;62.90;99809.03;5095007;28;20028;-48
2024/01/22 03:59:49;;;;;;;12.70;2.80;;;;;;;8.93;63.22;99830.66;5110748;28;20485;-48
2024/01/22 04:02:15;;;;;;;11.30;3.45;;;;;;;8.92;63.93;99826.41;5110479;28;20028;-47
2024/01/22 04:04:42;;;;;;;13.73;7.97;;;;;;;8.87;63.24;99840.94;5095171;28;20062;-47
2024/01/22 04:07:07;;;;;;;14.57;3.42;;;;;;;8.87;63.45;99839.13;5094775;28;20425;-47
2024/01/22 04:09:33;;;;;;;10.10;3.90;;;;;;;8.98;63.49;99835.41;5094819;28;20020;-47
2024/01/22 04:11:59;;;;;;;15.65;3.58;;;;;;;8.99;63.15;99839.66;5110413;28;20123;-48
2024/01/22 04:14:25;;;;;;;13.98;3.75;;;;;;;8.93;63.93;99842.91;5094707;28;20020;-48
2024/01/22 04:16:51;;;;;;;8.68;3.38;;;;;;;9.13;63.60;99840.81;5094689;28;20024;-48
2024/01/22 04:19:17;;;;;;;11.25;2.67;;;;;;;9.30;63.03;99837.22;5094602;28;20024;-48
2024/01/22 04:21:46;;;;;;;11.98;3.72;;;;;;;9.49;61.97;99832.63;5094481;28;20508;-48
2024/01/22 04:24:12;;;;;;;10.35;4.47;;;;;;;9.62;61.96;99825.09;5094529;28;20020;-47
2024/01/22 04:26:38;;;;;;;17.00;4.32;;;;;;;9.77;61.89;99848.81;5094481;28;20132;-48
2024/01/22 04:29:04;;;;;;;12.05;3.65;;;;;;;9.69;61.39;99846.22;5109645;28;20055;-48
2024/01/22 04:31:30;;;;;;;11.35;3.28;;;;;;;9.53;62.24;99858.34;5094394;28;20020;-48
2024/01/22 04:33:56;;;;;;;9.77;4.78;;;;;;;9.36;62.23;99870.63;5094388;28;20059;-47
2024/01/22 04:36:22;;;;;;;13.43;3.10;;;;;;;9.30;62.33;99865.25;5109974;28;20056;-48
2024/01/22 04:38:48;;;;;;;11.73;2.92;;;;;;;9.21;62.07;99864.38;5094242;28;20529;-47
2024/01/22 04:41:13;;;;;;;14.98;5.47;;;;;;;8.95;63.04;99865.34;5108521;28;20502;-47
2024/01/22 04:43:40;;;;;;;13.95;3.28;;;;;;;8.92;63.14;99852.56;5109805;28;20066;-48
2024/01/22 04:46:06;;;;;;;10.10;6.43;;;;;;;8.85;64.09;99858.59;5094042;28;20028;-50
2024/01/22 04:48:32;;;;;;;12.38;3.30;;;;;;;9.03;64.50;99837.53;5094127;28;20123;-50
2024/01/22 04:50:58;;;;;;;10.35;3.20;;;;;;;9.29;63.40;99825.09;5092839;28;20020;-50
2024/01/22 04:53:23;;;;;;;11.27;3.47;;;;;;;9.63;63.07;99818.06;5109642;28;20023;-50
2024/01/22 04:55:49;;;;;;;13.63;3.95;;;;;;;9.86;61.73;99818.16;5093945;28;20514;-50
2024/01/22 04:58:15;;;;;;;9.93;2.78;;;;;;;9.99;60.89;99815.84;5093846;28;20056;-50
2024/01/22 05:00:41;;;;;;;8.05;3.03;;;;;;;9.98;59.90;99816.84;5093770;28;20325;-50
2024/01/22 05:03:06;;;;;;;11.95;3.38;;;;;;;9.93;60.83;99800.78;5109379;28;20028;-50
2024/01/22 05:05:33;;;;;;;7.55;2.95;;;;;;;9.95;60.72;99793.56;5093701;28;20020;-50
2024/01/22 05:07:59;;;;;;;8.68;3.15;;;;;;;9.95;60.17;99797.00;5092467;28;20020;-50
2024/01/22 05:10:28;;;;;;;11.25;3.00;;;;;;;9.79;60.52;99816.22;5109295;28;20024;-50
2024/01/22 05:12:53;;;;;;;12.60;3.20;;;;;;;9.68;60.47;99828.84;5109561;28;20059;-50
2024/01/22 05:15:19;;;;;;;11.05;3.30;;;;;;;9.59;62.26;99836.72;5093492;28;20494;-50
2024/01/22 05:17:45;;;;;;;11.43;3.17;;;;;;;9.58;62.40;99831.66;5093501;28;20031;-50
2024/01/22 05:20:11;;;;;;;10.05;2.45;;;;;;;9.60;62.05;99832.31;5093436;28;20024;-50
2024/01/22 05:22:37;;;;;;;9.13;2.55;;;;;;;9.58;61.93;99831.66;5093270;28;20024;-50
2024/01/22 05:25:03;;;;;;;15.25;4.10;;;;;;;9.62;62.77;99832.13;5092017;28;20405;-50
2024/01/22 05:27:30;;;;;;;8.50;2.50;;;;;;;9.84;62.13;99831.47;5093076;28;20496;-50
2024/01/22 05:29:56;;;;;;;15.40;3.20;;;;;;;9.82;62.28;99832.59;5092196;28;20063;-50
2024/01/22 05:32:22;;;;;;;7.90;2.67;;;;;;;9.85;62.47;99838.31;5092231;28;20142;-50
2024/01/22 05:34:47;;;;;;;9.55;3.13;;;;;;;9.95;62.50;99846.81;5092264;28;20174;-50
2024/01/22 05:37:13;;;;;;;8.95;2.95;;;;;;;10.04;62.07;99847.66;5107754;28;20028;-50
2024/01/22 05:39:39;;;;;;;12.68;2.83;;;;;;;10.08;62.61;99827.97;5107866;28;20024;-48
2024/01/22 05:42:05;;;;;;;6.03;2.58;;;;;;;10.20;62.48;99842.34;5092024;28;20024;-50
2024/01/22 05:44:31;;;;;;;16.63;3.92;;;;;;;10.28;60.63;99836.25;5092052;28;20024;-51
2024/01/22 05:46:57;;;;;;;12.90;3.17;;;;;;;10.32;60.67;99832.34;5092076;28;20032;-50
2024/01/22 05:49:23;;;;;;;12.13;3.10;;;;;;;10.31;61.33;99829.88;5107638;28;20028;-50
2024/01/22 05:51:49;;;;;;;18.13;3.10;;;;;;;10.31;59.63;99835.94;5090448;28;20020;-50
2024/01/22 05:54:15;;;;;;;6.82;2.67;;;;;;;10.22;60.98;99838.72;5091945;28;20029;-50
2024/01/22 05:56:41;;;;;;;10.00;2.60;;;;;;;10.20;60.45;99833.63;5090597;28;20024;-50
2024/01/22 05:59:07;;;;;;;9.32;2.55;;;;;;;10.06;60.87;99843.03;5092117;28;20105;-50
2024/01/22 06:01:33;;;;;;;7.75;2.60;;;;;;;10.07;62.49;99841.22;5107679;28;20032;-50
2024/01/22 06:04:00;;;;;;;12.48;2.70;;;;;;;9.93;62.01;99842.75;5090768;28;20035;-50
2024/01/22 06:06:26;;;;;;;12.90;3.25;;;;;;;9.77;62.58;99844.41;5107628;28;20528;-50
2024/01/22 06:08:52;;;;;;;8.38;2.60;;;;;;;9.75;62.71;99848.97;5107440;28;20107;-50
2024/01/22 06:11:18;;;;;;;10.82;2.65;;;;;;;9.83;62.62;99842.09;5091706;28;20028;-50
2024/01/22 06:13:44;;;;;;;9.00;2.70;;;;;;;9.93;62.40;99848.78;5073528;28;20024;-50
2024/01/22 06:16:13;;;;;;;12.52;3.15;;;;;;;10.09;61.80;99841.88;5091659;28;20032;-50
2024/01/22 06:18:40;;;;;;;10.13;2.95;;;;;;;10.17;61.17;99839.22;5107316;28;20028;-50
2024/01/22 06:21:06;;;;;;;11.77;3.10;;;;;;;10.16;60.73;99854.16;5091543;28;20078;-50
2024/01/22 06:23:33;;;;;;;13.85;3.00;;;;;;;10.09;61.42;99858.44;5091463;28;20506;-50
2024/01/22 06:25:59;;;;;;;10.40;2.75;;;;;;;10.14;61.97;99857.91;5091442;28;20012;-50
2024/01/22 06:28:27;;;;;;;13.70;5.27;;;;;;;10.19;61.32;99838.06;5033173;28;1657421;-50
2024/01/22 06:30:53;;;;;;;12.05;3.75;;;;;;;10.25;60.88;99831.34;5092173;28;20302;-48
2024/01/22 06:33:20;;;;;;;12.50;2.65;;;;;;;10.27;61.04;99829.34;5092188;28;20028;-48
2024/01/22 06:35:47;;;;;;;8.95;3.30;;;;;;;10.29;61.31;99821.31;5092141;28;20024;-48
2024/01/22 06:38:13;;;;;;;11.23;2.80;;;;;;;10.36;61.17;99827.53;5092108;28;20110;-48
2024/01/22 06:40:39;;;;;;;9.10;2.70;;;;;;;10.34;61.10;99826.88;5107744;28;20553;-48
2024/01/22 06:43:05;;;;;;;10.93;3.33;;;;;;;10.31;60.90;99837.75;5091990;28;20367;-48
2024/01/22 06:45:31;;;;;;;12.52;3.08;;;;;;;10.15;60.80;99834.16;5091949;28;20028;-48
2024/01/22 06:47:56;;;;;;;8.60;2.83;;;;;;;10.02;61.45;99839.13;5092022;28;20044;-48
2024/01/22 06:50:23;;;;;;;9.43;2.63;;;;;;;9.86;61.90;99844.38;5091932;28;20437;-50
2024/01/22 06:52:49;;;;;;;11.35;3.13;;;;;;;9.80;62.13;99830.97;5092505;28;20031;-50
2024/01/22 06:55:15;;;;;;;10.18;3.33;;;;;;;9.90;63.96;99832.56;5090575;28;20031;-50
2024/01/22 06:57:41;;;;;;;7.90;2.80;;;;;;;9.96;63.34;99842.38;5107501;28;20490;-50
2024/01/22 07:00:08;;;;;;;12.52;3.97;;;;;;;9.89;62.82;99839.63;5091851;28;20111;-50
2024/01/22 07:02:35;;;;;;;9.25;3.15;;;;;;;9.87;63.17;99840.78;5091741;28;20490;-50
2024/01/22 07:05:01;;;;;;;10.48;5.57;;;;;;;9.95;63.14;99848.63;5095383;28;20101;-50
2024/01/22 07:07:27;;;;;;;12.38;3.75;;;;;;;10.05;63.80;99846.63;5111672;28;20024;-50
2024/01/22 07:09:56;;;;;;;13.93;3.85;;;;;;;10.16;62.81;99845.44;5096018;28;20375;-50
2024/01/22 07:12:23;;;;;;;13.30;2.92;;;;;;;10.22;63.37;99847.41;5094621;28;20028;-50
2024/01/22 07:14:49;;;;;;;12.98;3.90;;;;;;;10.34;62.94;99851.34;5095872;28;20020;-50
2024/01/22 07:17:16;;;;;;;10.70;3.55;;;;;;;10.38;62.35;99836.06;5111525;28;20016;-50
2024/01/22 07:19:43;;;;;;;15.10;3.50;;;;;;;10.40;62.61;99839.31;5095858;28;20095;-50
2024/01/22 07:22:09;;;;;;;9.50;3.22;;;;;;;10.42;62.40;99854.91;5095627;28;20482;-50
2024/01/22 07:24:36;;;;;;;9.23;3.10;;;;;;;10.35;62.10;99860.84;5095669;28;20103;-50
2024/01/22 07:27:02;;;;;;;16.00;3.63;;;;;;;10.32;61.82;99868.22;5111299;28;20024;-50
2024/01/22 07:29:28;;;;;;;8.88;2.45;;;;;;;10.35;61.90;99867.91;5111084;28;20048;-50
2024/01/22 07:31:53;;;;;;;10.57;3.13;;;;;;;10.30;61.69;99871.03;5094171;28;20514;-50
2024/01/22 07:34:20;;;;;;;11.10;3.33;;;;;;;10.18;61.97;99859.22;5111177;28;20020;-50
2024/01/22 07:36:46;;;;;;;12.57;5.32;;;;;;;10.11;61.48;99872.19;5095423;28;20024;-50
2024/01/22 07:39:12;;;;;;;17.95;4.20;;;;;;;9.94;61.88;99876.66;5094410;28;20081;-50
2024/01/22 07:41:40;;;;;;;14.73;3.72;;;;;;;9.98;62.40;99877.97;5095276;28;20497;-48
2024/01/22 07:44:06;;;;;;;25.58;4.50;;;;;;;10.08;62.74;99882.19;5095306;28;20056;-48
2024/01/22 07:46:32;;;;;;;14.20;3.72;;;;;;;10.26;62.74;99885.44;5095350;28;20055;-48
2024/01/22 07:48:58;;;;;;;17.20;3.63;;;;;;;10.37;61.82;99897.41;5093987;28;20111;-48
2024/01/22 07:51:24;;;;;;;18.90;8.18;;;;;;;10.54;62.32;99888.50;5095171;28;20032;-48
2024/01/22 07:53:50;;;;;;;19.42;4.00;;;;;;;10.64;61.07;99893.53;5095233;28;20074;-48
2024/01/22 07:56:17;;;;;;;31.27;3.97;;;;;;;10.77;61.11;99879.88;5095075;28;20024;-48
2024/01/22 07:58:43;;;;;;;39.10;6.00;;;;;;;10.99;60.90;99867.75;5110771;28;20040;-50
2024/01/22 08:01:09;;;;;;;17.42;4.28;;;;;;;11.29;61.00;99883.63;5093760;28;20050;-50
2024/01/22 08:03:35;;;;;;;16.05;2.60;;;;;;;11.54;59.33;99879.84;5094818;28;20035;-51
2024/01/22 08:06:01;;;;;;;11.35;3.13;;;;;;;11.91;58.40;99867.72;5094952;28;20028;-50
2024/01/22 08:08:28;;;;;;;15.60;3.63;;;;;;;12.22;57.39;99858.03;5094861;28;20031;-50
2024/01/22 08:10:54;;;;;;;9.38;2.88;;;;;;;12.58;55.72;99850.19;5110386;28;20098;-50
2024/01/22 08:13:21;;;;;;;8.95;2.75;;;;;;;13.37;53.02;99836.22;5094742;28;20032;-47
2024/01/22 08:15:50;;;;;;;11.43;3.20;;;;;;;13.47;52.58;99841.16;5110119;28;20039;-46
2024/01/22 08:18:16;;;;;;;14.93;2.80;;;;;;;13.38;52.54;99848.38;5094667;28;20024;-48
2024/01/22 08:20:42;;;;;;;8.98;2.50;;;;;;;13.24;52.06;99855.34;5110286;28;20107;-46
2024/01/22 08:23:09;;;;;;;6.97;2.47;;;;;;;12.89;53.08;99860.44;5110189;28;20039;-46
2024/01/22 08:25:36;;;;;;;11.38;3.65;;;;;;;12.73;53.34;99861.47;5094551;28;20454;-46
2024/01/22 08:28:02;;;;;;;8.43;2.78;;;;;;;12.67;53.92;99859.59;5094240;28;20052;-46
2024/01/22 08:30:28;;;;;;;8.10;2.50;;;;;;;12.64;53.56;99848.63;5110157;28;20040;-46
2024/01/22 08:32:54;;;;;;;9.07;2.55;;;;;;;12.49;55.07;99851.28;5093093;28;20044;-47
2024/01/22 08:35:21;;;;;;;11.80;3.50;;;;;;;12.48;54.90;99849.66;5094292;28;20056;-48
2024/01/22 08:37:52;;;;;;;8.00;2.40;;;;;;;12.53;54.60;99855.97;5110231;28;20046;-48
2024/01/22 08:40:22;;;;;;;10.88;3.00;;;;;;;12.64;54.78;99869.69;5094299;28;20031;-48
2024/01/22 08:42:50;;;;;;;10.55;2.60;;;;;;;12.71;53.36;99863.47;5109830;28;20016;-48
2024/01/22 08:45:16;;;;;;;17.08;2.67;;;;;;;12.76;53.52;99861.13;5094166;28;20026;-48
2024/01/22 08:47:44;;;;;;;6.03;2.10;;;;;;;12.79;52.44;99863.38;5092905;28;20035;-45
2024/01/22 08:50:11;;;;;;;8.18;2.47;;;;;;;12.78;53.56;99871.47;5094043;28;20028;-46
2024/01/22 08:52:40;;;;;;;11.50;2.95;;;;;;;12.92;53.35;99854.00;5094035;28;20081;-46
2024/01/22 08:55:06;;;;;;;7.68;2.72;;;;;;;13.09;51.95;99838.75;5093930;28;20027;-46
2024/01/22 08:57:32;;;;;;;17.23;2.70;;;;;;;13.17;51.60;99849.97;5109678;28;20406;-46
2024/01/22 08:59:58;;;;;;;11.23;2.88;;;;;;;13.23;50.28;99842.34;5109584;28;20024;-46
2024/01/22 09:02:24;;;;;;;7.25;2.75;;;;;;;13.06;50.29;99834.69;5093703;28;20020;-46
2024/01/22 09:04:50;;;;;;;7.45;2.50;;;;;;;13.03;50.56;99834.25;5109453;28;20031;-46
2024/01/22 09:07:15;;;;;;;9.68;4.07;;;;;;;12.95;51.17;99822.81;5093643;28;20016;-47
2024/01/22 09:09:42;;;;;;;11.13;2.65;;;;;;;12.86;50.86;99829.22;5093742;28;20115;-48
2024/01/22 09:12:08;;;;;;;15.27;6.38;;;;;;;12.75;51.18;99822.59;5092258;28;20036;-48
2024/01/22 09:14:34;;;;;;;9.50;3.15;;;;;;;12.77;51.67;99825.88;5093545;28;20023;-48
2024/01/22 09:16:59;;;;;;;10.63;2.63;;;;;;;12.83;51.25;99834.03;5093432;28;20030;-48
2024/01/22 09:19:25;;;;;;;8.57;2.47;;;;;;;12.92;51.79;99832.94;5109112;28;20050;-48
2024/01/22 09:21:51;;;;;;;10.45;2.72;;;;;;;12.99;51.55;99821.44;5093315;28;20035;-48
2024/01/22 09:24:17;;;;;;;8.43;2.80;;;;;;;13.16;51.19;99822.00;5092108;28;20493;-46
2024/01/22 09:26:43;;;;;;;8.35;2.47;;;;;;;13.23;50.34;99808.88;5092667;28;20050;-46
2024/01/22 09:29:08;;;;;;;10.30;2.78;;;;;;;13.26;50.95;99792.69;5108485;28;20040;-45
2024/01/22 09:31:35;;;;;;;10.32;2.60;;;;;;;13.20;50.40;99782.91;5093269;28;20056;-46
2024/01/22 09:34:00;;;;;;;14.13;3.22;;;;;;;13.07;52.62;99770.41;5108940;28;20024;-46
2024/01/22 09:36:26;;;;;;;10.27;2.33;;;;;;;13.02;53.14;99767.56;5109103;28;20395;-45
2024/01/22 09:38:52;;;;;;;8.73;2.22;;;;;;;12.79;51.31;99749.28;5108794;28;20058;-45
2024/01/22 09:41:18;;;;;;;8.95;2.38;;;;;;;12.44;51.99;99757.06;5108700;28;20122;-46
2024/01/22 09:43:46;;;;;;;9.00;1.85;;;;;;;12.14;52.71;99779.97;5092968;28;20028;-46
2024/01/22 09:46:12;;;;;;;8.07;2.08;;;;;;;12.01;52.81;99785.88;5092963;28;20046;-48
2024/01/22 09:48:39;;;;;;;22.23;8.43;;;;;;;11.88;53.73;99798.84;5092926;28;20578;-48
2024/01/22 09:51:06;;;;;;;12.10;3.05;;;;;;;11.84;54.16;99774.69;5092818;28;20508;-48
2024/01/22 09:53:37;;;;;;;13.90;3.83;;;;;;;11.89;54.86;99797.84;5092718;28;20028;-48
2024/01/22 09:56:06;;;;;;;15.73;3.20;;;;;;;12.14;53.41;99785.25;5092794;28;20036;-48
2024/01/22 09:58:43;;;;;;;6.63;2.67;;;;;;;12.20;52.84;99779.25;5092729;28;20543;-48
2024/01/22 10:01:12;;;;;;;10.20;4.10;;;;;;;12.21;53.24;99772.16;5108343;28;20043;-48
2024/01/22 10:03:39;;;;;;;10.73;2.35;;;;;;;12.11;52.10;99764.53;5108225;28;20020;-46
2024/01/22 10:06:05;;;;;;;11.05;2.97;;;;;;;12.02;55.24;99777.00;5092544;28;20031;-46
2024/01/22 10:08:31;;;;;;;9.35;2.20;;;;;;;12.05;53.68;99771.34;5092847;28;20020;-46
2024/01/22 10:10:57;;;;;;;9.85;2.30;;;;;;;12.09;53.87;99777.06;5092486;28;20024;-46
2024/01/22 10:13:23;;;;;;;7.00;2.33;;;;;;;12.07;53.79;99776.44;5108100;28;20046;-46
2024/01/22 10:15:49;;;;;;;7.22;2.30;;;;;;;12.12;53.48;99782.78;5108080;28;20490;-46
2024/01/22 10:18:17;;;;;;;9.25;2.35;;;;;;;12.27;53.41;99759.06;5092427;28;20082;-46
2024/01/22 10:20:45;;;;;;;7.22;1.90;;;;;;;12.27;52.36;99751.16;5092375;28;20178;-46
2024/01/22 10:23:12;;;;;;;7.65;3.33;;;;;;;12.13;52.93;99744.13;5090976;28;20498;-47
2024/01/22 10:25:38;;;;;;;16.02;7.40;;;;;;;12.03;54.13;99757.56;5092276;28;20032;-48
2024/01/22 10:28:08;;;;;;;17.83;12.20;;;;;;;11.97;54.47;99761.75;5091946;28;20040;-48
2024/01/22 10:30:36;;;;;;;12.30;7.72;;;;;;;12.06;54.45;99741.41;5090836;28;20439;-48
2024/01/22 10:33:12;;;;;;;13.85;5.32;;;;;;;12.12;53.49;99748.56;5092116;28;20035;-48
2024/01/22 10:35:38;;;;;;;6.03;2.92;;;;;;;12.12;53.50;99750.41;5091229;28;20206;-47
2024/01/22 10:38:08;;;;;;;8.75;4.03;;;;;;;12.19;54.15;99736.34;5091973;28;20024;-46
2024/01/22 10:40:34;;;;;;;7.50;2.58;;;;;;;12.35;53.47;99729.19;5107729;28;20101;-46
2024/01/22 10:43:18;;;;;;;7.72;2.83;;;;;;;12.33;53.17;99734.63;5091991;28;20028;-46
2024/01/22 10:45:48;;;;;;;8.23;2.13;;;;;;;12.30;52.81;99697.38;5107662;28;20040;-46
2024/01/22 10:48:18;;;;;;;6.97;2.28;;;;;;;12.20;53.92;99710.81;5091937;28;20100;-46
2024/01/22 10:50:44;;;;;;;12.05;2.88;;;;;;;12.08;57.42;99707.84;5091944;28;20018;-46
2024/01/22 10:53:13;;;;;;;9.23;2.58;;;;;;;12.02;56.67;99713.03;5090911;28;20028;-46
2024/01/22 10:55:39;;;;;;;12.25;2.65;;;;;;;11.94;55.86;99703.44;5090622;28;20107;-46
2024/01/22 10:58:19;;;;;;;7.63;2.38;;;;;;;11.87;60.27;99724.38;5091758;28;20103;-47
2024/01/22 11:00:45;;;;;;;5.20;1.83;;;;;;;11.71;60.07;99722.75;5091901;28;20024;-48
2024/01/22 11:03:15;;;;;;;12.77;2.35;;;;;;;11.44;61.85;99732.06;5091753;28;20111;-48
2024/01/22 11:05:44;;;;;;;15.57;4.63;;;;;;;11.25;64.59;99719.44;5092039;28;20013;-47
2024/01/22 11:08:15;;;;;;;13.63;5.18;;;;;;;10.99;67.29;99705.72;5090710;28;20028;-47
2024/01/22 11:10:46;;;;;;;9.30;2.50;;;;;;;11.07;66.10;99688.25;5091743;28;20027;-47
2024/01/22 11:13:13;;;;;;;12.43;3.33;;;;;;;11.25;64.99;99698.41;5090708;28;20028;-46
2024/01/22 11:15:39;;;;;;;9.93;2.70;;;;;;;11.33;63.54;99695.72;5091639;28;20024;-48
2024/01/22 11:18:08;;;;;;;13.10;3.65;;;;;;;11.49;63.47;99697.34;5091611;28;20039;-48
2024/01/22 11:20:34;;;;;;;10.00;2.08;;;;;;;11.41;62.34;99690.38;5091889;28;20439;-48
2024/01/22 11:23:02;;;;;;;6.03;1.90;;;;;;;11.31;61.36;99651.22;5091603;28;20048;-48
2024/01/22 11:25:29;;;;;;;6.07;2.53;;;;;;;11.25;62.07;99648.47;5091597;28;20024;-48
2024/01/22 11:28:09;;;;;;;7.28;1.80;;;;;;;11.23;61.45;99639.97;5091298;28;20020;-49